sensor_id;sensor_type;location;lat;lon;timestamp;P1;durP1;ratioP1;P2;durP2;ratioP2
78860;SDS011;68211;45.774;15.892;2023-03-01T00:00:39;22.67;;;17.88;;
78860;SDS011;68211;45.774;15.892;2023-03-01T00:03:06;25.13;;;17.65;;
78860;SDS011;68211;45.774;15.892;2023-03-01T00:05:33;23.92;;;16.95;;
78860;SDS011;68211;45.774;15.892;2023-03-01T00:07:59;25.35;;;18.33;;
78860;SDS011;68211;45.774;15.892;2023-03-01T00:10:25;21.58;;;17.33;;
78860;SDS011;68211;45.774;15.892;2023-03-01T00:12:53;23.08;;;17.75;;
78860;SDS011;68211;45.774;15.892;2023-03-01T00:15:19;26.95;;;17.92;;
78860;SDS011;68211;45.774;15.892;2023-03-01T00:17:46;24.77;;;18.02;;
78860;SDS011;68211;45.774;15.892;2023-03-01T00:20:12;24.42;;;18.20;;
78860;SDS011;68211;45.774;15.892;2023-03-01T00:22:39;24.63;;;18.13;;
78860;SDS011;68211;45.774;15.892;2023-03-01T00:25:05;25.75;;;18.70;;
78860;SDS011;68211;45.774;15.892;2023-03-01T00:27:32;23.35;;;17.58;;
78860;SDS011;68211;45.774;15.892;2023-03-01T00:30:00;25.33;;;17.73;;
78860;SDS011;68211;45.774;15.892;2023-03-01T00:32:26;21.63;;;17.05;;
78860;SDS011;68211;45.774;15.892;2023-03-01T00:34:52;27.40;;;18.55;;
78860;SDS011;68211;45.774;15.892;2023-03-01T00:37:19;23.88;;;18.27;;
78860;SDS011;68211;45.774;15.892;2023-03-01T00:39:45;25.67;;;18.10;;
78860;SDS011;68211;45.774;15.892;2023-03-01T00:42:11;24.77;;;18.58;;
78860;SDS011;68211;45.774;15.892;2023-03-01T00:44:38;23.05;;;17.92;;
78860;SDS011;68211;45.774;15.892;2023-03-01T00:47:06;25.15;;;18.92;;
78860;SDS011;68211;45.774;15.892;2023-03-01T00:49:32;26.83;;;17.35;;
78860;SDS011;68211;45.774;15.892;2023-03-01T00:51:58;22.83;;;17.45;;
78860;SDS011;68211;45.774;15.892;2023-03-01T00:54:25;23.67;;;17.92;;
78860;SDS011;68211;45.774;15.892;2023-03-01T00:56:51;26.15;;;18.17;;
78860;SDS011;68211;45.774;15.892;2023-03-01T00:59:18;28.95;;;18.65;;
78860;SDS011;68211;45.774;15.892;2023-03-01T01:01:44;31.35;;;19.08;;
78860;SDS011;68211;45.774;15.892;2023-03-01T01:04:12;27.70;;;19.02;;
78860;SDS011;68211;45.774;15.892;2023-03-01T01:06:39;26.65;;;19.35;;
78860;SDS011;68211;45.774;15.892;2023-03-01T01:09:06;27.40;;;19.65;;
78860;SDS011;68211;45.774;15.892;2023-03-01T01:11:33;28.77;;;20.42;;
78860;SDS011;68211;45.774;15.892;2023-03-01T01:13:59;25.52;;;19.65;;
78860;SDS011;68211;45.774;15.892;2023-03-01T01:16:26;26.48;;;19.13;;
78860;SDS011;68211;45.774;15.892;2023-03-01T01:18:53;22.83;;;17.42;;
78860;SDS011;68211;45.774;15.892;2023-03-01T01:21:22;23.13;;;17.65;;
78860;SDS011;68211;45.774;15.892;2023-03-01T01:23:49;22.70;;;16.90;;
78860;SDS011;68211;45.774;15.892;2023-03-01T01:26:17;26.42;;;18.27;;
78860;SDS011;68211;45.774;15.892;2023-03-01T01:28:44;22.40;;;17.20;;
78860;SDS011;68211;45.774;15.892;2023-03-01T01:31:10;22.98;;;17.95;;
78860;SDS011;68211;45.774;15.892;2023-03-01T01:33:37;24.77;;;17.23;;
78860;SDS011;68211;45.774;15.892;2023-03-01T01:36:04;23.02;;;17.33;;
78860;SDS011;68211;45.774;15.892;2023-03-01T01:38:32;25.48;;;17.33;;
78860;SDS011;68211;45.774;15.892;2023-03-01T01:40:58;23.58;;;17.23;;
78860;SDS011;68211;45.774;15.892;2023-03-01T01:43:26;22.08;;;16.95;;
78860;SDS011;68211;45.774;15.892;2023-03-01T01:45:54;22.17;;;16.83;;
78860;SDS011;68211;45.774;15.892;2023-03-01T01:48:22;25.00;;;17.50;;
78860;SDS011;68211;45.774;15.892;2023-03-01T01:50:51;23.77;;;17.60;;
78860;SDS011;68211;45.774;15.892;2023-03-01T01:53:19;22.55;;;17.20;;
78860;SDS011;68211;45.774;15.892;2023-03-01T01:55:49;22.90;;;17.13;;
78860;SDS011;68211;45.774;15.892;2023-03-01T01:58:17;23.63;;;17.17;;
78860;SDS011;68211;45.774;15.892;2023-03-01T02:00:44;21.60;;;17.17;;
78860;SDS011;68211;45.774;15.892;2023-03-01T02:03:12;24.15;;;16.98;;
78860;SDS011;68211;45.774;15.892;2023-03-01T02:05:42;22.90;;;17.35;;
78860;SDS011;68211;45.774;15.892;2023-03-01T02:08:10;20.58;;;15.93;;
78860;SDS011;68211;45.774;15.892;2023-03-01T02:10:37;24.40;;;16.23;;
78860;SDS011;68211;45.774;15.892;2023-03-01T02:13:05;21.40;;;15.35;;
78860;SDS011;68211;45.774;15.892;2023-03-01T02:15:32;26.05;;;17.77;;
78860;SDS011;68211;45.774;15.892;2023-03-01T02:17:59;22.80;;;17.70;;
78860;SDS011;68211;45.774;15.892;2023-03-01T02:20:29;24.58;;;17.42;;
78860;SDS011;68211;45.774;15.892;2023-03-01T02:22:59;22.55;;;17.05;;
78860;SDS011;68211;45.774;15.892;2023-03-01T02:25:28;20.08;;;16.58;;
78860;SDS011;68211;45.774;15.892;2023-03-01T02:27:58;23.92;;;17.58;;
78860;SDS011;68211;45.774;15.892;2023-03-01T02:30:28;21.75;;;16.98;;
78860;SDS011;68211;45.774;15.892;2023-03-01T02:32:55;27.10;;;17.13;;
78860;SDS011;68211;45.774;15.892;2023-03-01T02:35:22;27.60;;;17.23;;
78860;SDS011;68211;45.774;15.892;2023-03-01T02:37:49;20.92;;;16.58;;
78860;SDS011;68211;45.774;15.892;2023-03-01T02:40:17;24.17;;;17.15;;
78860;SDS011;68211;45.774;15.892;2023-03-01T02:42:46;20.80;;;16.60;;
78860;SDS011;68211;45.774;15.892;2023-03-01T02:45:13;22.60;;;16.05;;
78860;SDS011;68211;45.774;15.892;2023-03-01T02:47:41;21.52;;;15.32;;
78860;SDS011;68211;45.774;15.892;2023-03-01T02:50:15;21.02;;;16.23;;
78860;SDS011;68211;45.774;15.892;2023-03-01T02:52:45;25.02;;;15.25;;
78860;SDS011;68211;45.774;15.892;2023-03-01T02:55:14;23.00;;;16.30;;
78860;SDS011;68211;45.774;15.892;2023-03-01T02:57:42;21.50;;;15.98;;
78860;SDS011;68211;45.774;15.892;2023-03-01T03:00:10;20.75;;;16.45;;
78860;SDS011;68211;45.774;15.892;2023-03-01T03:02:37;23.88;;;16.23;;
78860;SDS011;68211;45.774;15.892;2023-03-01T03:05:06;20.92;;;16.67;;
78860;SDS011;68211;45.774;15.892;2023-03-01T03:07:34;24.38;;;16.35;;
78860;SDS011;68211;45.774;15.892;2023-03-01T03:10:00;24.30;;;16.88;;
78860;SDS011;68211;45.774;15.892;2023-03-01T03:12:27;20.92;;;17.00;;
78860;SDS011;68211;45.774;15.892;2023-03-01T03:14:53;24.55;;;16.73;;
78860;SDS011;68211;45.774;15.892;2023-03-01T03:17:20;22.23;;;17.30;;
78860;SDS011;68211;45.774;15.892;2023-03-01T03:19:46;20.88;;;17.02;;
78860;SDS011;68211;45.774;15.892;2023-03-01T03:22:14;25.23;;;16.88;;
78860;SDS011;68211;45.774;15.892;2023-03-01T03:24:40;26.60;;;18.77;;
78860;SDS011;68211;45.774;15.892;2023-03-01T03:27:07;23.35;;;17.85;;
78860;SDS011;68211;45.774;15.892;2023-03-01T03:29:33;27.20;;;17.85;;
78860;SDS011;68211;45.774;15.892;2023-03-01T03:32:00;26.83;;;18.15;;
78860;SDS011;68211;45.774;15.892;2023-03-01T03:34:26;30.30;;;18.80;;
78860;SDS011;68211;45.774;15.892;2023-03-01T03:36:53;29.65;;;18.90;;
78860;SDS011;68211;45.774;15.892;2023-03-01T03:39:20;29.27;;;19.95;;
78860;SDS011;68211;45.774;15.892;2023-03-01T03:41:47;32.45;;;18.67;;
78860;SDS011;68211;45.774;15.892;2023-03-01T03:44:13;32.03;;;19.52;;
78860;SDS011;68211;45.774;15.892;2023-03-01T03:46:40;31.15;;;20.85;;
78860;SDS011;68211;45.774;15.892;2023-03-01T03:49:06;33.78;;;19.90;;
78860;SDS011;68211;45.774;15.892;2023-03-01T03:51:32;30.90;;;21.02;;
78860;SDS011;68211;45.774;15.892;2023-03-01T03:53:59;34.38;;;21.27;;
78860;SDS011;68211;45.774;15.892;2023-03-01T03:56:27;38.65;;;21.73;;
78860;SDS011;68211;45.774;15.892;2023-03-01T03:58:54;34.80;;;21.30;;
78860;SDS011;68211;45.774;15.892;2023-03-01T04:01:21;30.83;;;19.60;;
78860;SDS011;68211;45.774;15.892;2023-03-01T04:03:47;34.05;;;20.90;;
78860;SDS011;68211;45.774;15.892;2023-03-01T04:06:14;35.05;;;20.73;;
78860;SDS011;68211;45.774;15.892;2023-03-01T04:08:40;33.58;;;20.25;;
78860;SDS011;68211;45.774;15.892;2023-03-01T04:11:07;37.47;;;21.67;;
78860;SDS011;68211;45.774;15.892;2023-03-01T04:13:34;36.28;;;22.40;;
78860;SDS011;68211;45.774;15.892;2023-03-01T04:16:01;38.92;;;22.10;;
78860;SDS011;68211;45.774;15.892;2023-03-01T04:18:27;32.08;;;21.67;;
78860;SDS011;68211;45.774;15.892;2023-03-01T04:20:54;38.67;;;20.95;;
78860;SDS011;68211;45.774;15.892;2023-03-01T04:23:20;35.45;;;21.73;;
78860;SDS011;68211;45.774;15.892;2023-03-01T04:25:47;33.55;;;21.98;;
78860;SDS011;68211;45.774;15.892;2023-03-01T04:28:14;31.45;;;22.33;;
78860;SDS011;68211;45.774;15.892;2023-03-01T04:30:42;35.72;;;22.45;;
78860;SDS011;68211;45.774;15.892;2023-03-01T04:33:09;36.03;;;22.55;;
78860;SDS011;68211;45.774;15.892;2023-03-01T04:35:35;34.63;;;21.88;;
78860;SDS011;68211;45.774;15.892;2023-03-01T04:38:02;31.15;;;22.45;;
78860;SDS011;68211;45.774;15.892;2023-03-01T04:40:29;39.92;;;21.58;;
78860;SDS011;68211;45.774;15.892;2023-03-01T04:42:55;33.28;;;21.20;;
78860;SDS011;68211;45.774;15.892;2023-03-01T04:45:22;30.15;;;21.17;;
78860;SDS011;68211;45.774;15.892;2023-03-01T04:47:50;37.22;;;22.30;;
78860;SDS011;68211;45.774;15.892;2023-03-01T04:50:17;35.58;;;21.80;;
78860;SDS011;68211;45.774;15.892;2023-03-01T04:52:44;31.88;;;21.90;;
78860;SDS011;68211;45.774;15.892;2023-03-01T04:55:10;35.38;;;23.65;;
78860;SDS011;68211;45.774;15.892;2023-03-01T04:57:37;35.72;;;22.45;;
78860;SDS011;68211;45.774;15.892;2023-03-01T05:00:04;40.83;;;22.92;;
78860;SDS011;68211;45.774;15.892;2023-03-01T05:02:30;39.40;;;22.15;;
78860;SDS011;68211;45.774;15.892;2023-03-01T05:04:58;37.35;;;24.10;;
78860;SDS011;68211;45.774;15.892;2023-03-01T05:07:24;36.70;;;23.35;;
78860;SDS011;68211;45.774;15.892;2023-03-01T05:09:51;40.97;;;28.38;;
78860;SDS011;68211;45.774;15.892;2023-03-01T05:12:20;42.28;;;29.67;;
78860;SDS011;68211;45.774;15.892;2023-03-01T05:14:46;48.90;;;30.77;;
78860;SDS011;68211;45.774;15.892;2023-03-01T05:17:12;48.25;;;31.35;;
78860;SDS011;68211;45.774;15.892;2023-03-01T05:19:39;43.38;;;29.98;;
78860;SDS011;68211;45.774;15.892;2023-03-01T05:22:07;43.30;;;30.38;;
78860;SDS011;68211;45.774;15.892;2023-03-01T05:24:34;43.92;;;29.35;;
78860;SDS011;68211;45.774;15.892;2023-03-01T05:27:01;46.67;;;30.20;;
78860;SDS011;68211;45.774;15.892;2023-03-01T05:29:28;44.53;;;29.83;;
78860;SDS011;68211;45.774;15.892;2023-03-01T05:31:55;49.08;;;31.52;;
78860;SDS011;68211;45.774;15.892;2023-03-01T05:34:22;41.97;;;30.38;;
78860;SDS011;68211;45.774;15.892;2023-03-01T05:36:49;47.90;;;30.73;;
78860;SDS011;68211;45.774;15.892;2023-03-01T05:39:17;47.45;;;29.85;;
78860;SDS011;68211;45.774;15.892;2023-03-01T05:41:43;44.92;;;30.98;;
78860;SDS011;68211;45.774;15.892;2023-03-01T05:44:09;48.10;;;30.42;;
78860;SDS011;68211;45.774;15.892;2023-03-01T05:46:36;45.15;;;31.50;;
78860;SDS011;68211;45.774;15.892;2023-03-01T05:49:02;41.45;;;30.20;;
78860;SDS011;68211;45.774;15.892;2023-03-01T05:51:29;42.13;;;30.63;;
78860;SDS011;68211;45.774;15.892;2023-03-01T05:53:55;44.92;;;30.80;;
78860;SDS011;68211;45.774;15.892;2023-03-01T05:56:23;40.92;;;30.02;;
78860;SDS011;68211;45.774;15.892;2023-03-01T05:58:49;39.10;;;28.63;;
78860;SDS011;68211;45.774;15.892;2023-03-01T06:01:15;42.00;;;29.33;;
78860;SDS011;68211;45.774;15.892;2023-03-01T06:03:42;52.53;;;30.73;;
78860;SDS011;68211;45.774;15.892;2023-03-01T06:06:08;43.90;;;29.15;;
78860;SDS011;68211;45.774;15.892;2023-03-01T06:08:35;40.55;;;29.13;;
78860;SDS011;68211;45.774;15.892;2023-03-01T06:11:01;49.50;;;29.42;;
78860;SDS011;68211;45.774;15.892;2023-03-01T06:13:29;37.97;;;28.08;;
78860;SDS011;68211;45.774;15.892;2023-03-01T06:15:55;40.15;;;29.83;;
78860;SDS011;68211;45.774;15.892;2023-03-01T06:18:22;44.78;;;29.80;;
78860;SDS011;68211;45.774;15.892;2023-03-01T06:20:52;41.83;;;29.50;;
78860;SDS011;68211;45.774;15.892;2023-03-01T06:23:18;44.85;;;28.60;;
78860;SDS011;68211;45.774;15.892;2023-03-01T06:25:45;41.95;;;28.17;;
78860;SDS011;68211;45.774;15.892;2023-03-01T06:28:11;41.15;;;28.48;;
78860;SDS011;68211;45.774;15.892;2023-03-01T06:30:39;39.75;;;26.10;;
78860;SDS011;68211;45.774;15.892;2023-03-01T06:33:05;37.08;;;25.58;;
78860;SDS011;68211;45.774;15.892;2023-03-01T06:35:32;37.65;;;27.02;;
78860;SDS011;68211;45.774;15.892;2023-03-01T06:37:59;37.10;;;26.50;;
78860;SDS011;68211;45.774;15.892;2023-03-01T06:40:26;40.50;;;26.70;;
78860;SDS011;68211;45.774;15.892;2023-03-01T06:42:52;32.60;;;23.38;;
78860;SDS011;68211;45.774;15.892;2023-03-01T06:45:19;33.67;;;24.20;;
78860;SDS011;68211;45.774;15.892;2023-03-01T06:47:47;29.02;;;20.50;;
78860;SDS011;68211;45.774;15.892;2023-03-01T06:50:14;30.13;;;21.85;;
78860;SDS011;68211;45.774;15.892;2023-03-01T06:52:40;31.90;;;22.10;;
78860;SDS011;68211;45.774;15.892;2023-03-01T06:55:07;35.08;;;21.13;;
78860;SDS011;68211;45.774;15.892;2023-03-01T06:57:34;36.03;;;22.38;;
78860;SDS011;68211;45.774;15.892;2023-03-01T07:00:00;35.10;;;22.05;;
78860;SDS011;68211;45.774;15.892;2023-03-01T07:02:26;33.15;;;22.15;;
78860;SDS011;68211;45.774;15.892;2023-03-01T07:04:54;31.05;;;22.05;;
78860;SDS011;68211;45.774;15.892;2023-03-01T07:07:21;30.38;;;22.27;;
78860;SDS011;68211;45.774;15.892;2023-03-01T07:09:48;30.85;;;22.73;;
78860;SDS011;68211;45.774;15.892;2023-03-01T07:12:14;34.03;;;22.67;;
78860;SDS011;68211;45.774;15.892;2023-03-01T07:14:41;36.95;;;24.15;;
78860;SDS011;68211;45.774;15.892;2023-03-01T07:17:07;34.08;;;24.38;;
78860;SDS011;68211;45.774;15.892;2023-03-01T07:19:34;31.50;;;22.33;;
78860;SDS011;68211;45.774;15.892;2023-03-01T07:22:02;29.65;;;22.65;;
78860;SDS011;68211;45.774;15.892;2023-03-01T07:24:29;33.05;;;23.02;;
78860;SDS011;68211;45.774;15.892;2023-03-01T07:26:55;37.03;;;22.85;;
78860;SDS011;68211;45.774;15.892;2023-03-01T07:29:21;34.70;;;22.58;;
78860;SDS011;68211;45.774;15.892;2023-03-01T07:31:48;34.75;;;23.88;;
78860;SDS011;68211;45.774;15.892;2023-03-01T07:34:14;34.85;;;23.23;;
78860;SDS011;68211;45.774;15.892;2023-03-01T07:36:41;36.05;;;22.52;;
78860;SDS011;68211;45.774;15.892;2023-03-01T07:39:09;31.20;;;21.92;;
78860;SDS011;68211;45.774;15.892;2023-03-01T07:41:35;32.00;;;20.40;;
78860;SDS011;68211;45.774;15.892;2023-03-01T07:44:01;30.33;;;20.63;;
78860;SDS011;68211;45.774;15.892;2023-03-01T07:46:28;26.83;;;20.38;;
78860;SDS011;68211;45.774;15.892;2023-03-01T07:48:55;29.25;;;21.20;;
78860;SDS011;68211;45.774;15.892;2023-03-01T07:51:21;26.08;;;19.67;;
78860;SDS011;68211;45.774;15.892;2023-03-01T07:53:48;29.10;;;20.27;;
78860;SDS011;68211;45.774;15.892;2023-03-01T07:56:16;25.98;;;19.52;;
78860;SDS011;68211;45.774;15.892;2023-03-01T07:58:43;30.10;;;20.85;;
78860;SDS011;68211;45.774;15.892;2023-03-01T08:01:10;29.92;;;21.25;;
78860;SDS011;68211;45.774;15.892;2023-03-01T08:03:36;25.73;;;19.20;;
78860;SDS011;68211;45.774;15.892;2023-03-01T08:06:04;22.73;;;18.30;;
78860;SDS011;68211;45.774;15.892;2023-03-01T08:08:31;27.85;;;18.75;;
78860;SDS011;68211;45.774;15.892;2023-03-01T08:10:58;33.15;;;20.40;;
78860;SDS011;68211;45.774;15.892;2023-03-01T08:13:26;25.85;;;19.35;;
78860;SDS011;68211;45.774;15.892;2023-03-01T08:15:53;27.77;;;19.15;;
78860;SDS011;68211;45.774;15.892;2023-03-01T08:18:19;21.50;;;17.02;;
78860;SDS011;68211;45.774;15.892;2023-03-01T08:20:47;24.15;;;17.35;;
78860;SDS011;68211;45.774;15.892;2023-03-01T08:23:13;28.60;;;16.65;;
78860;SDS011;68211;45.774;15.892;2023-03-01T08:25:39;23.77;;;16.38;;
78860;SDS011;68211;45.774;15.892;2023-03-01T08:28:06;23.23;;;17.27;;
78860;SDS011;68211;45.774;15.892;2023-03-01T08:30:34;21.00;;;16.52;;
78860;SDS011;68211;45.774;15.892;2023-03-01T08:33:00;20.05;;;16.27;;
78860;SDS011;68211;45.774;15.892;2023-03-01T08:35:26;17.85;;;14.77;;
78860;SDS011;68211;45.774;15.892;2023-03-01T08:37:53;19.70;;;15.85;;
78860;SDS011;68211;45.774;15.892;2023-03-01T08:40:19;30.05;;;16.75;;
78860;SDS011;68211;45.774;15.892;2023-03-01T08:42:46;22.63;;;15.85;;
78860;SDS011;68211;45.774;15.892;2023-03-01T08:45:12;20.80;;;14.73;;
78860;SDS011;68211;45.774;15.892;2023-03-01T08:47:40;22.15;;;14.57;;
78860;SDS011;68211;45.774;15.892;2023-03-01T08:50:07;17.45;;;14.85;;
78860;SDS011;68211;45.774;15.892;2023-03-01T08:52:33;19.45;;;15.55;;
78860;SDS011;68211;45.774;15.892;2023-03-01T08:55:00;17.10;;;14.00;;
78860;SDS011;68211;45.774;15.892;2023-03-01T08:57:26;19.10;;;14.57;;
78860;SDS011;68211;45.774;15.892;2023-03-01T08:59:53;19.05;;;14.70;;
78860;SDS011;68211;45.774;15.892;2023-03-01T09:02:19;15.43;;;13.77;;
78860;SDS011;68211;45.774;15.892;2023-03-01T09:04:47;17.10;;;14.45;;
78860;SDS011;68211;45.774;15.892;2023-03-01T09:07:13;17.25;;;12.90;;
78860;SDS011;68211;45.774;15.892;2023-03-01T09:09:40;14.95;;;11.95;;
78860;SDS011;68211;45.774;15.892;2023-03-01T09:12:06;18.23;;;13.52;;
78860;SDS011;68211;45.774;15.892;2023-03-01T09:14:33;32.55;;;23.17;;
78860;SDS011;68211;45.774;15.892;2023-03-01T09:16:59;34.05;;;23.95;;
78860;SDS011;68211;45.774;15.892;2023-03-01T09:19:26;30.27;;;23.55;;
78860;SDS011;68211;45.774;15.892;2023-03-01T09:21:54;34.63;;;22.88;;
78860;SDS011;68211;45.774;15.892;2023-03-01T09:24:21;35.05;;;23.98;;
78860;SDS011;68211;45.774;15.892;2023-03-01T09:26:48;35.03;;;23.38;;
78860;SDS011;68211;45.774;15.892;2023-03-01T09:29:16;33.63;;;21.40;;
78860;SDS011;68211;45.774;15.892;2023-03-01T09:31:43;29.40;;;20.17;;
78860;SDS011;68211;45.774;15.892;2023-03-01T09:34:09;27.60;;;19.40;;
78860;SDS011;68211;45.774;15.892;2023-03-01T09:36:36;28.38;;;18.90;;
78860;SDS011;68211;45.774;15.892;2023-03-01T09:39:04;27.30;;;20.85;;
78860;SDS011;68211;45.774;15.892;2023-03-01T09:41:34;30.38;;;22.85;;
78860;SDS011;68211;45.774;15.892;2023-03-01T09:44:03;31.55;;;22.67;;
78860;SDS011;68211;45.774;15.892;2023-03-01T09:46:31;27.57;;;22.17;;
78860;SDS011;68211;45.774;15.892;2023-03-01T09:49:01;33.63;;;21.50;;
78860;SDS011;68211;45.774;15.892;2023-03-01T09:51:31;24.23;;;19.77;;
78860;SDS011;68211;45.774;15.892;2023-03-01T09:53:58;23.83;;;19.00;;
78860;SDS011;68211;45.774;15.892;2023-03-01T09:56:27;24.90;;;17.98;;
78860;SDS011;68211;45.774;15.892;2023-03-01T09:58:57;24.23;;;18.70;;
78860;SDS011;68211;45.774;15.892;2023-03-01T10:01:29;24.60;;;19.35;;
78860;SDS011;68211;45.774;15.892;2023-03-01T10:06:44;29.20;;;21.30;;
78860;SDS011;68211;45.774;15.892;2023-03-01T10:09:12;17.80;;;15.40;;
78860;SDS011;68211;45.774;15.892;2023-03-01T10:11:41;21.38;;;17.17;;
78860;SDS011;68211;45.774;15.892;2023-03-01T10:14:12;22.75;;;17.67;;
78860;SDS011;68211;45.774;15.892;2023-03-01T10:16:43;25.00;;;17.63;;
78860;SDS011;68211;45.774;15.892;2023-03-01T10:19:15;26.77;;;18.65;;
78860;SDS011;68211;45.774;15.892;2023-03-01T10:21:44;21.80;;;17.33;;
78860;SDS011;68211;45.774;15.892;2023-03-01T10:24:12;17.48;;;14.25;;
78860;SDS011;68211;45.774;15.892;2023-03-01T10:26:43;17.13;;;13.65;;
78860;SDS011;68211;45.774;15.892;2023-03-01T10:29:11;17.13;;;13.60;;
78860;SDS011;68211;45.774;15.892;2023-03-01T10:31:39;16.80;;;13.95;;
78860;SDS011;68211;45.774;15.892;2023-03-01T10:34:10;17.65;;;13.60;;
78860;SDS011;68211;45.774;15.892;2023-03-01T10:36:38;23.13;;;17.25;;
78860;SDS011;68211;45.774;15.892;2023-03-01T10:39:10;28.25;;;20.40;;
78860;SDS011;68211;45.774;15.892;2023-03-01T10:41:37;32.75;;;21.30;;
78860;SDS011;68211;45.774;15.892;2023-03-01T10:44:12;18.05;;;14.07;;
78860;SDS011;68211;45.774;15.892;2023-03-01T10:47:00;22.33;;;15.55;;
78860;SDS011;68211;45.774;15.892;2023-03-01T10:49:26;15.07;;;12.65;;
78860;SDS011;68211;45.774;15.892;2023-03-01T10:51:53;15.70;;;12.82;;
78860;SDS011;68211;45.774;15.892;2023-03-01T10:54:20;17.20;;;12.93;;
78860;SDS011;68211;45.774;15.892;2023-03-01T10:56:48;13.45;;;10.45;;
78860;SDS011;68211;45.774;15.892;2023-03-01T10:59:22;11.52;;;10.30;;
78860;SDS011;68211;45.774;15.892;2023-03-01T11:02:02;11.05;;;9.70;;
78860;SDS011;68211;45.774;15.892;2023-03-01T11:04:41;11.02;;;9.88;;
78860;SDS011;68211;45.774;15.892;2023-03-01T11:07:22;12.18;;;9.93;;
78860;SDS011;68211;45.774;15.892;2023-03-01T11:09:48;9.48;;;8.50;;
78860;SDS011;68211;45.774;15.892;2023-03-01T11:12:15;8.35;;;7.53;;
78860;SDS011;68211;45.774;15.892;2023-03-01T11:14:46;8.43;;;7.50;;
78860;SDS011;68211;45.774;15.892;2023-03-01T11:17:15;10.10;;;7.40;;
78860;SDS011;68211;45.774;15.892;2023-03-01T11:19:42;8.43;;;7.53;;
78860;SDS011;68211;45.774;15.892;2023-03-01T11:22:19;9.75;;;8.75;;
78860;SDS011;68211;45.774;15.892;2023-03-01T11:24:47;8.02;;;7.25;;
78860;SDS011;68211;45.774;15.892;2023-03-01T11:27:29;9.52;;;8.20;;
78860;SDS011;68211;45.774;15.892;2023-03-01T11:29:57;9.68;;;8.68;;
78860;SDS011;68211;45.774;15.892;2023-03-01T11:32:26;9.10;;;8.13;;
78860;SDS011;68211;45.774;15.892;2023-03-01T11:34:54;10.02;;;8.18;;
78860;SDS011;68211;45.774;15.892;2023-03-01T11:37:23;9.95;;;8.40;;
78860;SDS011;68211;45.774;15.892;2023-03-01T11:39:53;9.30;;;7.90;;
78860;SDS011;68211;45.774;15.892;2023-03-01T11:42:22;13.48;;;8.20;;
78860;SDS011;68211;45.774;15.892;2023-03-01T11:44:54;9.27;;;7.60;;
78860;SDS011;68211;45.774;15.892;2023-03-01T11:47:24;9.88;;;7.55;;
78860;SDS011;68211;45.774;15.892;2023-03-01T11:52:51;8.10;;;7.18;;
78860;SDS011;68211;45.774;15.892;2023-03-01T11:55:35;9.75;;;8.35;;
78860;SDS011;68211;45.774;15.892;2023-03-01T11:58:07;9.95;;;8.13;;
78860;SDS011;68211;45.774;15.892;2023-03-01T12:00:40;10.70;;;8.57;;
78860;SDS011;68211;45.774;15.892;2023-03-01T12:03:16;7.93;;;7.05;;
78860;SDS011;68211;45.774;15.892;2023-03-01T12:05:49;10.88;;;7.60;;
78860;SDS011;68211;45.774;15.892;2023-03-01T12:08:19;7.13;;;6.07;;
78860;SDS011;68211;45.774;15.892;2023-03-01T12:10:48;11.02;;;7.18;;
78860;SDS011;68211;45.774;15.892;2023-03-01T12:13:23;7.78;;;7.00;;
78860;SDS011;68211;45.774;15.892;2023-03-01T12:15:57;8.20;;;6.88;;
78860;SDS011;68211;45.774;15.892;2023-03-01T12:18:34;9.60;;;7.10;;
78860;SDS011;68211;45.774;15.892;2023-03-01T12:21:04;7.82;;;7.03;;
78860;SDS011;68211;45.774;15.892;2023-03-01T12:23:45;8.45;;;6.35;;
78860;SDS011;68211;45.774;15.892;2023-03-01T12:26:15;7.68;;;6.97;;
78860;SDS011;68211;45.774;15.892;2023-03-01T12:28:48;8.43;;;7.10;;
78860;SDS011;68211;45.774;15.892;2023-03-01T12:34:01;7.03;;;6.32;;
78860;SDS011;68211;45.774;15.892;2023-03-01T12:36:41;6.30;;;5.70;;
78860;SDS011;68211;45.774;15.892;2023-03-01T12:39:15;6.35;;;5.75;;
78860;SDS011;68211;45.774;15.892;2023-03-01T12:41:48;7.82;;;7.10;;
78860;SDS011;68211;45.774;15.892;2023-03-01T12:44:23;7.25;;;6.22;;
78860;SDS011;68211;45.774;15.892;2023-03-01T12:46:59;7.38;;;6.57;;
78860;SDS011;68211;45.774;15.892;2023-03-01T12:49:30;10.93;;;8.77;;
78860;SDS011;68211;45.774;15.892;2023-03-01T12:51:58;7.88;;;6.78;;
78860;SDS011;68211;45.774;15.892;2023-03-01T12:54:27;8.90;;;7.00;;
78860;SDS011;68211;45.774;15.892;2023-03-01T12:56:54;7.47;;;6.68;;
78860;SDS011;68211;45.774;15.892;2023-03-01T12:59:22;7.57;;;6.88;;
78860;SDS011;68211;45.774;15.892;2023-03-01T13:01:51;7.90;;;7.20;;
78860;SDS011;68211;45.774;15.892;2023-03-01T13:04:28;10.30;;;8.52;;
78860;SDS011;68211;45.774;15.892;2023-03-01T13:07:04;13.07;;;7.13;;
78860;SDS011;68211;45.774;15.892;2023-03-01T13:09:36;8.65;;;7.68;;
78860;SDS011;68211;45.774;15.892;2023-03-01T13:14:46;9.07;;;6.82;;
78860;SDS011;68211;45.774;15.892;2023-03-01T13:19:57;10.23;;;7.68;;
78860;SDS011;68211;45.774;15.892;2023-03-01T13:22:28;9.80;;;8.80;;
78860;SDS011;68211;45.774;15.892;2023-03-01T13:25:11;11.02;;;8.63;;
78860;SDS011;68211;45.774;15.892;2023-03-01T13:27:38;11.10;;;8.35;;
78860;SDS011;68211;45.774;15.892;2023-03-01T13:30:12;11.55;;;8.80;;
78860;SDS011;68211;45.774;15.892;2023-03-01T13:32:52;9.68;;;8.05;;
78860;SDS011;68211;45.774;15.892;2023-03-01T13:35:42;10.07;;;7.72;;
78860;SDS011;68211;45.774;15.892;2023-03-01T13:40:58;13.90;;;8.82;;
78860;SDS011;68211;45.774;15.892;2023-03-01T13:43:29;8.93;;;7.97;;
78860;SDS011;68211;45.774;15.892;2023-03-01T13:45:55;9.98;;;8.65;;
78860;SDS011;68211;45.774;15.892;2023-03-01T13:48:24;9.38;;;8.38;;
78860;SDS011;68211;45.774;15.892;2023-03-01T13:50:52;11.32;;;8.35;;
78860;SDS011;68211;45.774;15.892;2023-03-01T13:53:21;12.82;;;8.82;;
78860;SDS011;68211;45.774;15.892;2023-03-01T13:55:49;8.93;;;7.85;;
78860;SDS011;68211;45.774;15.892;2023-03-01T13:58:23;15.35;;;8.57;;
78860;SDS011;68211;45.774;15.892;2023-03-01T14:00:54;7.53;;;6.82;;
78860;SDS011;68211;45.774;15.892;2023-03-01T14:03:21;11.40;;;8.75;;
78860;SDS011;68211;45.774;15.892;2023-03-01T14:05:57;9.38;;;8.38;;
78860;SDS011;68211;45.774;15.892;2023-03-01T14:08:38;11.82;;;7.57;;
78860;SDS011;68211;45.774;15.892;2023-03-01T14:11:27;9.25;;;8.10;;
78860;SDS011;68211;45.774;15.892;2023-03-01T14:16:57;8.52;;;7.68;;
78860;SDS011;68211;45.774;15.892;2023-03-01T14:19:24;15.35;;;8.40;;
78860;SDS011;68211;45.774;15.892;2023-03-01T14:21:59;9.43;;;8.05;;
78860;SDS011;68211;45.774;15.892;2023-03-01T14:24:26;7.97;;;7.18;;
78860;SDS011;68211;45.774;15.892;2023-03-01T14:26:52;7.13;;;6.45;;
78860;SDS011;68211;45.774;15.892;2023-03-01T14:29:32;7.80;;;6.40;;
78860;SDS011;68211;45.774;15.892;2023-03-01T14:32:09;9.02;;;6.72;;
78860;SDS011;68211;45.774;15.892;2023-03-01T14:34:35;7.43;;;6.38;;
78860;SDS011;68211;45.774;15.892;2023-03-01T14:37:09;8.07;;;6.97;;
78860;SDS011;68211;45.774;15.892;2023-03-01T14:39:36;7.28;;;6.53;;